Time;durP1;ratioP1;P1;durP2;ratioP2;P2;SDS_P1;SDS_P2;PMS_P1;PMS_P2;Temp;Humidity;BMP_temperature;BMP_pressure;BME280_temperature;BME280_humidity;BME280_pressure;Samples;Min_cycle;Max_cycle;Signal;HPM_P1;HPM_P2
2022/08/23 00:01:47;;;;;;;;;1.25;0.25;;;;;23.00;55.22;101160.72;5075220;27;46436;-81
2022/08/23 00:04:17;;;;;;;;;1.00;1.00;;;;;22.92;55.65;101171.91;5074409;28;45685;-81
2022/08/23 00:06:43;;;;;;;;;0.50;0.00;;;;;22.88;55.71;101174.88;5075430;27;45449;-81
2022/08/23 00:09:09;;;;;;;;;0.00;0.00;;;;;22.88;55.17;101172.22;5075188;27;45370;-81
2022/08/23 00:11:37;;;;;;;;;1.00;1.00;;;;;22.91;55.69;101170.19;5076243;27;75626;-81
2022/08/23 00:14:28;;;;;;;;;0.00;0.00;;;;;22.93;55.71;101170.09;5077543;28;45369;-81
2022/08/23 00:16:54;;;;;;;;;0.50;0.50;;;;;22.92;56.19;101166.59;5078128;27;45251;-82
2022/08/23 00:19:21;;;;;;;;;0.50;0.50;;;;;22.91;56.10;101169.34;5078798;27;45339;-81
2022/08/23 00:21:48;;;;;;;;;2.25;0.75;;;;;22.88;55.75;101164.25;5078030;27;45520;-81
2022/08/23 00:24:14;;;;;;;;;1.00;0.75;;;;;22.89;56.31;101164.16;5077534;27;45342;-81
2022/08/23 00:26:49;;;;;;;;;0.50;0.50;;;;;22.88;55.89;101166.91;5078677;27;45527;-81
2022/08/23 00:29:14;;;;;;;;;1.50;0.50;;;;;22.86;55.93;101161.72;5078614;27;45410;-81
2022/08/23 00:31:40;;;;;;;;;0.50;0.50;;;;;22.84;56.31;101158.34;5078232;27;47252;-81
2022/08/23 00:34:05;;;;;;;;;0.50;0.50;;;;;22.86;56.45;101156.41;5078287;27;45318;-81
2022/08/23 00:36:31;;;;;;;;;0.75;0.75;;;;;22.87;55.98;101154.63;5077824;28;45244;-81
2022/08/23 00:38:56;;;;;;;;;3.50;0.50;;;;;22.90;55.92;101154.38;5077613;27;63483;-81
2022/08/23 00:41:21;;;;;;;;;1.25;1.00;;;;;22.90;56.05;101151.72;5077554;27;64015;-81
2022/08/23 00:49:33;;;;;;;;;1.00;1.00;;;;;22.76;56.46;101160.72;5077343;27;45481;-81
2022/08/23 00:52:06;;;;;;;;;1.00;1.00;;;;;22.69;56.71;101157.66;5077687;27;45415;-81
2022/08/23 00:54:32;;;;;;;;;0.50;0.50;;;;;22.64;57.21;101158.97;5076769;27;46071;-82
2022/08/23 00:57:00;;;;;;;;;1.75;0.75;;;;;22.61;57.27;101162.69;5076965;27;45436;-81
2022/08/23 00:59:26;;;;;;;;;1.00;1.00;;;;;22.58;57.51;101163.78;5077031;27;45313;-81
2022/08/23 01:01:52;;;;;;;;;0.50;0.50;;;;;22.57;57.31;101161.22;5077882;27;46124;-81
2022/08/23 01:04:18;;;;;;;;;1.25;0.50;;;;;22.55;57.80;101156.03;5078172;28;45461;-81
2022/08/23 01:06:58;;;;;;;;;0.50;0.50;;;;;22.51;57.72;101159.88;5076547;27;45458;-81
2022/08/23 01:09:24;;;;;;;;;2.00;2.00;;;;;22.48;57.52;101157.44;5076819;27;45497;-81
2022/08/23 01:12:03;;;;;;;;;0.50;0.50;;;;;22.49;57.76;101163.56;5076463;27;46534;-81
2022/08/23 01:14:31;;;;;;;;;0.75;0.75;;;;;22.47;57.25;101163.69;5077817;27;45617;-81
2022/08/23 01:17:24;;;;;;;;;1.00;1.00;;;;;22.48;58.21;101168.03;5077821;28;45490;-80
2022/08/23 01:19:59;;;;;;;;;1.00;1.00;;;;;22.48;57.79;101172.50;5073891;27;45516;-82
2022/08/23 01:22:30;;;;;;;;;1.00;1.00;;;;;22.47;57.81;101176.94;5075816;27;47778;-81
2022/08/23 01:24:56;;;;;;;;;1.00;1.00;;;;;22.51;57.68;101169.63;5076485;28;45424;-81
2022/08/23 01:27:21;;;;;;;;;0.50;0.50;;;;;22.54;57.65;101170.25;5075816;27;59632;-82
2022/08/23 01:29:47;;;;;;;;;0.50;0.50;;;;;22.56;57.81;101173.63;5077683;27;45436;-81
2022/08/23 01:32:13;;;;;;;;;1.00;1.00;;;;;22.56;58.05;101165.66;5077072;28;46019;-82
2022/08/23 01:34:38;;;;;;;;;2.00;2.00;;;;;22.54;57.63;101170.25;5075581;28;45636;-81
2022/08/23 01:37:07;;;;;;;;;0.75;0.75;;;;;22.55;57.74;101169.28;5077486;28;45732;-81
2022/08/23 01:39:36;;;;;;;;;2.50;1.25;;;;;22.61;58.18;101168.00;5076125;28;45423;-81
2022/08/23 01:42:03;;;;;;;;;0.00;0.00;;;;;22.65;57.70;101166.81;5076205;28;45305;-81
2022/08/23 01:44:28;;;;;;;;;4.00;1.00;;;;;22.69;57.70;101162.13;5076062;28;45286;-81
2022/08/23 01:46:54;;;;;;;;;0.50;0.50;;;;;22.74;57.81;101162.66;5076083;27;45414;-81
2022/08/23 01:49:19;;;;;;;;;2.25;0.75;;;;;22.78;57.17;101166.75;5075847;27;70455;-81
2022/08/23 01:51:45;;;;;;;;;0.75;0.50;;;;;22.81;57.23;101169.19;5076235;27;70322;-81
2022/08/23 01:54:11;;;;;;;;;0.50;0.50;;;;;22.83;57.47;101169.09;5076949;27;45312;-81
2022/08/23 01:56:37;;;;;;;;;1.25;0.50;;;;;22.84;57.67;101170.78;5077170;27;45426;-81
2022/08/23 01:59:03;;;;;;;;;0.00;0.00;;;;;22.81;57.48;101169.19;5076219;28;45523;-81
2022/08/23 02:01:28;;;;;;;;;0.50;0.50;;;;;22.79;57.24;101171.13;5077014;27;45434;-81
2022/08/23 02:03:54;;;;;;;;;0.50;0.50;;;;;22.75;57.97;101173.16;5075654;28;69584;-81
2022/08/23 02:06:20;;;;;;;;;1.00;1.00;;;;;22.69;58.25;101170.94;5077139;27;45326;-81
2022/08/23 02:09:00;;;;;;;;;1.25;1.25;;;;;22.63;58.48;101170.53;5077023;27;45321;-81
2022/08/23 02:11:28;;;;;;;;;0.75;0.50;;;;;22.58;58.55;101173.53;5076792;27;45370;-81
2022/08/23 02:13:55;;;;;;;;;2.50;0.50;;;;;22.57;58.61;101177.16;5076811;28;45863;-81
2022/08/23 02:16:23;;;;;;;;;1.00;0.00;;;;;22.59;58.58;101169.91;5076680;27;45486;-81
2022/08/23 02:18:49;;;;;;;;;0.50;0.50;;;;;22.62;58.53;101164.38;5076558;27;45399;-81
2022/08/23 02:21:15;;;;;;;;;0.00;0.00;;;;;22.67;58.40;101166.72;5076661;27;45424;-81
2022/08/23 02:23:40;;;;;;;;;1.00;1.00;;;;;22.71;58.11;101166.34;5075262;28;45511;-81
2022/08/23 02:26:05;;;;;;;;;0.50;0.50;;;;;22.70;58.77;101174.44;5076935;28;45826;-81
2022/08/23 02:28:31;;;;;;;;;1.00;1.00;;;;;22.65;58.44;101180.06;5076237;28;50297;-81
2022/08/23 02:30:56;;;;;;;;;0.25;0.25;;;;;22.62;58.17;101177.63;5075999;28;67015;-81
2022/08/23 02:33:21;;;;;;;;;1.00;1.00;;;;;22.66;57.91;101179.13;5075123;27;66791;-81
2022/08/23 02:35:47;;;;;;;;;1.00;1.00;;;;;22.68;58.48;101181.66;5074509;27;61988;-81
2022/08/23 02:38:13;;;;;;;;;1.50;1.00;;;;;22.68;59.01;101179.00;5076667;27;45516;-81
2022/08/23 02:40:39;;;;;;;;;1.25;0.50;;;;;22.69;58.31;101178.06;5076484;28;45458;-81
2022/08/23 02:43:05;;;;;;;;;1.00;0.00;;;;;22.71;58.04;101179.63;5076574;27;45398;-81
2022/08/23 02:45:30;;;;;;;;;1.00;1.00;;;;;22.74;58.87;101182.06;5075463;28;45303;-81
2022/08/23 02:47:56;;;;;;;;;0.50;0.50;;;;;22.74;58.27;101184.72;5074855;28;45586;-81
2022/08/23 02:50:21;;;;;;;;;0.25;0.25;;;;;22.75;58.38;101183.75;5075526;28;72111;-81
2022/08/23 02:52:47;;;;;;;;;1.00;1.00;;;;;22.75;57.98;101183.75;5076081;27;45273;-81
2022/08/23 02:55:12;;;;;;;;;0.00;0.00;;;;;22.78;58.11;101182.69;5075503;27;54587;-81
2022/08/23 02:57:38;;;;;;;;;0.00;0.00;;;;;22.81;58.02;101174.50;5076272;27;45283;-81
2022/08/23 03:00:06;;;;;;;;;0.25;0.25;;;;;22.83;58.17;101180.53;5076096;27;46285;-81
2022/08/23 03:02:32;;;;;;;;;1.50;0.25;;;;;22.86;58.09;101177.66;5074775;27;45416;-81
2022/08/23 03:04:57;;;;;;;;;0.00;0.00;;;;;22.87;58.11;101186.47;5076772;27;45415;-81
2022/08/23 03:07:23;;;;;;;;;0.00;0.00;;;;;22.84;58.25;101184.88;5076050;27;45532;-81
2022/08/23 03:09:48;;;;;;;;;0.00;0.00;;;;;22.82;58.14;101186.78;5074803;28;75368;-81
2022/08/23 03:12:13;;;;;;;;;0.00;0.00;;;;;22.81;57.93;101182.47;5076158;27;45579;-81
2022/08/23 03:14:39;;;;;;;;;0.00;0.00;;;;;22.74;57.85;101182.06;5076170;28;45356;-81
2022/08/23 03:17:05;;;;;;;;;1.25;1.25;;;;;22.71;58.08;101179.63;5074816;27;67988;-81
2022/08/23 03:19:31;;;;;;;;;1.00;0.25;;;;;22.72;58.24;101186.63;5074713;28;47136;-81
2022/08/23 03:21:56;;;;;;;;;1.00;0.00;;;;;22.69;58.56;101186.00;5074796;27;73238;-81
2022/08/23 03:24:22;;;;;;;;;0.25;0.25;;;;;22.67;58.45;101190.59;5075994;27;45479;-81
2022/08/23 03:26:47;;;;;;;;;0.00;0.00;;;;;22.62;58.53;101185.59;5075897;27;45463;-81
2022/08/23 03:29:12;;;;;;;;;0.00;0.00;;;;;22.57;58.52;101190.41;5074761;27;73706;-81
2022/08/23 03:31:38;;;;;;;;;0.00;0.00;;;;;22.51;59.00;101183.75;5075386;28;45222;-81
2022/08/23 03:34:04;;;;;;;;;1.00;1.00;;;;;22.44;59.01;101190.44;5074914;27;63692;-81
2022/08/23 03:36:29;;;;;;;;;0.50;0.25;;;;;22.38;59.35;101191.75;5075577;28;45439;-81
2022/08/23 03:38:55;;;;;;;;;0.25;0.00;;;;;22.32;59.44;101183.34;5075585;28;46391;-81
2022/08/23 03:41:21;;;;;;;;;1.00;1.00;;;;;22.28;59.44;101187.19;5074233;28;51499;-81
2022/08/23 03:43:46;;;;;;;;;1.00;1.00;;;;;22.26;59.58;101194.41;5075980;27;45404;-81
2022/08/23 03:46:21;;;;;;;;;1.00;1.00;;;;;22.22;59.58;101199.91;5075526;27;67198;-81
2022/08/23 03:48:55;;;;;;;;;0.25;0.25;;;;;22.17;59.67;101209.97;5079187;27;47242;-81
2022/08/23 03:51:22;;;;;;;;;1.00;1.00;;;;;22.09;59.73;101211.47;5079083;27;45426;-81
2022/08/23 03:53:48;;;;;;;;;1.00;1.00;;;;;22.02;59.79;101219.00;5077908;28;45546;-81
2022/08/23 03:56:48;;;;;;;;;1.00;1.00;;;;;21.96;60.20;101217.63;5078927;27;45538;-81
2022/08/23 03:59:14;;;;;;;;;1.00;1.00;;;;;21.95;60.40;101223.03;5077152;27;45437;-81
2022/08/23 04:01:39;;;;;;;;;1.25;1.25;;;;;21.90;60.57;101230.44;5078229;28;72044;-81
2022/08/23 04:04:04;;;;;;;;;1.25;1.25;;;;;21.86;60.58;101227.19;5079169;27;45315;-81
2022/08/23 04:06:32;;;;;;;;;1.00;1.00;;;;;21.85;60.60;101221.00;5078127;27;65785;-81
2022/08/23 04:08:57;;;;;;;;;1.00;1.00;;;;;21.85;60.33;101228.13;5078773;27;46163;-81
2022/08/23 04:11:24;;;;;;;;;3.00;2.00;;;;;21.85;60.67;101236.06;5078299;27;57937;-81
2022/08/23 04:13:50;;;;;;;;;2.00;1.00;;;;;21.85;60.85;101226.31;5077239;27;45376;-81
2022/08/23 04:16:17;;;;;;;;;1.00;1.00;;;;;21.85;60.99;101228.97;5078757;28;45391;-81
2022/08/23 04:18:43;;;;;;;;;2.00;2.00;;;;;21.86;60.96;101229.84;5078556;27;45408;-82
2022/08/23 04:21:12;;;;;;;;;1.25;1.25;;;;;21.86;60.57;101229.84;5077391;27;45675;-81
2022/08/23 04:23:38;;;;;;;;;0.00;0.00;;;;;21.83;60.93;101236.16;5078967;27;45460;-81
2022/08/23 04:26:05;;;;;;;;;1.00;1.00;;;;;21.82;61.13;101238.91;5078562;27;45540;-81
2022/08/23 04:28:31;;;;;;;;;1.00;1.00;;;;;21.80;61.21;101244.34;5078027;27;45672;-81
2022/08/23 04:30:59;;;;;;;;;1.00;1.00;;;;;21.78;61.04;101238.28;5078597;28;45438;-81
2022/08/23 04:33:24;;;;;;;;;3.25;1.00;;;;;21.76;61.43;101242.84;5077284;27;45491;-81
2022/08/23 04:35:50;;;;;;;;;1.00;1.00;;;;;21.76;60.86;101244.66;5077063;27;45393;-81
2022/08/23 04:38:15;;;;;;;;;1.75;1.25;;;;;21.73;61.45;101245.72;5078020;27;60197;-81
2022/08/23 04:43:25;;;;;;;;;2.50;1.50;;;;;21.70;61.14;101245.91;5077083;27;45476;-81
2022/08/23 04:45:51;;;;;;;;;0.00;0.00;;;;;21.70;61.70;101253.03;5078187;27;45387;-81
2022/08/23 04:48:17;;;;;;;;;1.00;1.00;;;;;21.64;61.37;101247.19;5078140;27;46400;-81
2022/08/23 04:50:42;;;;;;;;;1.00;1.00;;;;;21.61;61.96;101244.72;5078125;27;45700;-81
2022/08/23 04:53:08;;;;;;;;;1.00;1.00;;;;;21.58;61.62;101250.25;5078236;28;45228;-81
2022/08/23 04:55:33;;;;;;;;;3.00;2.00;;;;;21.56;62.00;101248.63;5077407;27;51982;-81
2022/08/23 04:57:58;;;;;;;;;0.50;0.50;;;;;21.54;61.90;101255.84;5074503;28;73050;-81
2022/08/23 05:00:24;;;;;;;;;0.00;0.00;;;;;21.53;61.94;101248.88;5077126;27;73476;-81
2022/08/23 05:02:49;;;;;;;;;2.00;2.00;;;;;21.50;62.04;101257.00;5077378;28;63543;-81
2022/08/23 05:05:15;;;;;;;;;1.00;1.00;;;;;21.48;61.75;101254.47;5076911;28;45408;-82
2022/08/23 05:07:40;;;;;;;;;2.00;1.00;;;;;21.50;61.96;101259.66;5077635;28;46327;-81
2022/08/23 05:10:08;;;;;;;;;4.25;2.00;;;;;21.49;62.17;101258.81;5077168;27;63022;-81
2022/08/23 05:12:33;;;;;;;;;1.00;1.00;;;;;21.44;62.16;101261.75;5077830;27;45240;-81
2022/08/23 05:14:59;;;;;;;;;3.00;1.00;;;;;21.44;62.29;101258.22;5077941;27;45228;-81
2022/08/23 05:17:24;;;;;;;;;1.00;1.00;;;;;21.45;62.17;101259.94;5077795;28;45428;-81
2022/08/23 05:19:50;;;;;;;;;1.00;1.00;;;;;21.50;62.40;101262.31;5077618;27;45426;-81
2022/08/23 05:22:15;;;;;;;;;2.00;2.00;;;;;21.50;62.64;101257.00;5075517;27;69511;-81
2022/08/23 05:24:41;;;;;;;;;1.25;1.25;;;;;21.48;62.79;101259.75;5076769;27;69130;-81
2022/08/23 05:27:06;;;;;;;;;1.75;1.75;;;;;21.48;62.64;101267.69;5075537;27;54617;-81
2022/08/23 05:29:31;;;;;;;;;4.00;1.75;;;;;21.51;62.48;101256.03;5076841;27;69041;-81
2022/08/23 05:31:57;;;;;;;;;2.00;2.00;;;;;21.54;62.70;101269.09;5076773;27;57881;-81
2022/08/23 05:34:22;;;;;;;;;2.25;2.25;;;;;21.55;62.54;101266.34;5077503;28;45441;-81
2022/08/23 05:36:48;;;;;;;;;4.00;1.25;;;;;21.54;62.67;101277.03;5074953;27;67774;-81
2022/08/23 05:39:14;;;;;;;;;4.25;3.00;;;;;21.51;62.78;101278.09;5077236;27;45421;-81
2022/08/23 05:41:40;;;;;;;;;2.25;2.25;;;;;21.50;63.23;101278.19;5075796;27;45345;-81
2022/08/23 05:44:06;;;;;;;;;5.25;3.00;;;;;21.50;62.96;101280.84;5077449;27;45314;-81
2022/08/23 05:46:32;;;;;;;;;6.50;4.00;;;;;21.50;63.14;101283.50;5075694;27;46348;-81
2022/08/23 05:48:57;;;;;;;;;4.00;3.50;;;;;21.52;63.32;101281.59;5077290;27;45751;-81
2022/08/23 05:51:26;;;;;;;;;4.00;3.00;;;;;21.55;63.14;101278.75;5076450;27;64925;-81
2022/08/23 05:53:53;;;;;;;;;5.00;3.50;;;;;21.54;63.40;101283.16;5077127;27;45552;-81
2022/08/23 05:56:20;;;;;;;;;2.00;2.00;;;;;21.58;63.23;101275.88;5075401;27;45499;-81
2022/08/23 05:58:46;;;;;;;;;2.00;2.00;;;;;21.63;63.05;101284.38;5077067;27;45698;-81
2022/08/23 06:01:13;;;;;;;;;2.25;2.00;;;;;21.65;63.22;101275.34;5076129;28;45369;-82
2022/08/23 06:03:39;;;;;;;;;3.00;2.00;;;;;21.69;63.18;101283.94;5075944;27;45652;-81
2022/08/23 06:06:05;;;;;;;;;3.00;2.25;;;;;21.70;63.55;101284.81;5076900;27;45645;-81
2022/08/23 06:08:32;;;;;;;;;3.00;3.00;;;;;21.70;63.42;101285.66;5076818;27;45360;-81
2022/08/23 06:11:06;;;;;;;;;2.00;2.00;;;;;21.74;63.04;101283.66;5076800;27;45469;-81
2022/08/23 06:13:32;;;;;;;;;4.00;1.00;;;;;21.80;62.43;101284.09;5075846;28;45474;-81
2022/08/23 06:15:58;;;;;;;;;2.50;2.00;;;;;21.83;63.21;101285.69;5076633;27;45364;-81
2022/08/23 06:18:24;;;;;;;;;3.00;3.00;;;;;21.85;63.24;101291.72;5076780;27;45406;-81
2022/08/23 06:20:59;;;;;;;;;3.25;2.50;;;;;21.91;63.03;101290.47;5075720;27;45388;-81
2022/08/23 06:23:25;;;;;;;;;3.75;2.00;;;;;21.94;63.17;101300.88;5076739;27;45278;-81
2022/08/23 06:25:50;;;;;;;;;3.00;3.00;;;;;21.95;62.83;101297.25;5076014;27;45418;-81
2022/08/23 06:28:16;;;;;;;;;1.00;1.00;;;;;21.95;62.42;101302.53;5075835;27;67476;-81
2022/08/23 06:30:41;;;;;;;;;4.00;3.00;;;;;21.99;63.04;101299.59;5076707;27;45330;-81
2022/08/23 06:33:07;;;;;;;;;2.50;2.25;;;;;22.05;62.86;101308.94;5076059;27;48891;-81
2022/08/23 06:35:33;;;;;;;;;2.00;2.00;;;;;22.09;61.98;101306.91;5076228;27;45544;-81
2022/08/23 06:38:01;;;;;;;;;2.75;2.75;;;;;22.17;61.85;101305.41;5076426;28;45407;-81
2022/08/23 06:40:27;;;;;;;;;3.50;1.75;;;;;22.26;61.68;101306.63;5075055;28;45424;-80
2022/08/23 06:42:53;;;;;;;;;5.00;3.00;;;;;22.35;61.71;101311.28;5075147;28;45577;-81
2022/08/23 06:45:19;;;;;;;;;2.00;2.00;;;;;22.41;61.09;101315.31;5076155;27;46935;-81
2022/08/23 06:47:44;;;;;;;;;4.00;2.50;;;;;22.46;60.98;101315.00;5075627;27;59491;-81
2022/08/23 06:50:09;;;;;;;;;3.50;2.25;;;;;22.53;60.92;101311.81;5075386;28;68996;-81
2022/08/23 06:52:35;;;;;;;;;3.00;2.00;;;;;22.64;61.33;101315.50;5075166;28;45488;-81
2022/08/23 06:55:01;;;;;;;;;3.50;2.00;;;;;22.72;60.48;101318.47;5075438;28;45554;-81
2022/08/23 06:57:27;;;;;;;;;3.00;2.50;;;;;22.80;60.32;101316.09;5076478;27;45287;-81
2022/08/23 06:59:52;;;;;;;;;1.00;1.00;;;;;22.88;60.02;101316.44;5075474;28;61797;-81
2022/08/23 07:02:17;;;;;;;;;1.50;1.50;;;;;22.92;59.68;101315.25;5075136;28;45408;-81
2022/08/23 07:04:43;;;;;;;;;1.75;1.75;;;;;22.96;60.29;101318.53;5075090;27;75021;-81
2022/08/23 07:07:09;;;;;;;;;2.25;2.00;;;;;22.99;59.64;101323.59;5076012;27;45221;-81
2022/08/23 07:09:35;;;;;;;;;2.50;1.75;;;;;23.04;59.60;101332.13;5075857;27;45293;-81
2022/08/23 07:12:01;;;;;;;;;4.00;2.50;;;;;23.08;59.33;101324.78;5076161;27;45346;-81
2022/08/23 07:14:27;;;;;;;;;1.50;1.50;;;;;23.13;59.37;101325.28;5075748;27;45331;-81
2022/08/23 07:16:55;;;;;;;;;2.75;2.75;;;;;23.17;59.41;101338.22;5076046;27;45858;-81
2022/08/23 07:19:24;;;;;;;;;3.25;1.50;;;;;23.25;59.47;101335.00;5075278;27;45651;-81
2022/08/23 07:21:50;;;;;;;;;4.00;2.75;;;;;23.37;59.73;101325.31;5076976;27;45289;-81
2022/08/23 07:24:16;;;;;;;;;2.75;1.75;;;;;23.50;59.28;101335.88;5078916;27;54806;-81
2022/08/23 07:26:43;;;;;;;;;4.00;2.25;;;;;23.66;58.44;101336.44;5079536;27;45760;-81
2022/08/23 07:29:10;;;;;;;;;3.25;2.00;;;;;23.82;58.72;101336.16;5079810;27;45377;-81
2022/08/23 07:31:40;;;;;;;;;2.00;2.00;;;;;24.00;58.22;101341.88;5079521;27;45539;-81
2022/08/23 07:34:06;;;;;;;;;3.00;3.00;;;;;24.15;57.90;101339.88;5078217;28;45454;-81
2022/08/23 07:36:32;;;;;;;;;4.00;2.75;;;;;24.25;57.50;101335.50;5078751;27;45320;-81
2022/08/23 07:38:58;;;;;;;;;2.00;2.00;;;;;24.34;57.73;101341.94;5079537;27;45344;-81
2022/08/23 07:41:30;;;;;;;;;2.00;2.00;;;;;24.41;57.45;101347.66;5079508;27;45429;-81
2022/08/23 07:43:57;;;;;;;;;2.00;2.00;;;;;24.47;57.35;101345.34;5079334;27;45416;-81
2022/08/23 07:46:23;;;;;;;;;3.00;2.00;;;;;24.57;57.12;101345.47;5079215;27;45322;-82
2022/08/23 07:48:48;;;;;;;;;3.50;2.00;;;;;24.66;57.19;101357.22;5078232;27;45417;-81
2022/08/23 07:51:14;;;;;;;;;1.75;1.75;;;;;24.73;57.25;101350.47;5078154;27;61565;-81
2022/08/23 07:53:40;;;;;;;;;3.00;2.00;;;;;24.83;56.69;101351.44;5077716;28;45618;-81
2022/08/23 07:56:10;;;;;;;;;2.50;2.50;;;;;24.87;57.22;101352.88;5079062;27;45455;-81
2022/08/23 07:58:35;;;;;;;;;1.50;1.50;;;;;24.95;57.08;101356.75;5079096;27;45430;-81
2022/08/23 08:01:20;;;;;;;;;1.25;1.25;;;;;25.09;56.27;101352.00;5079126;28;45500;-81
2022/08/23 08:03:48;;;;;;;;;3.25;3.00;;;;;25.20;56.09;101350.28;5079009;27;45399;-81
2022/08/23 08:06:17;;;;;;;;;3.75;3.00;;;;;25.25;55.66;101354.28;5078406;27;45765;-81
2022/08/23 08:08:43;;;;;;;;;1.75;1.75;;;;;25.29;55.77;101358.38;5078963;27;45501;-81
2022/08/23 08:11:10;;;;;;;;;4.00;3.00;;;;;25.27;55.51;101360.34;5078682;27;47300;-81
2022/08/23 08:13:43;;;;;;;;;2.25;2.25;;;;;25.23;55.61;101353.56;5078561;27;46282;-81
2022/08/23 08:16:10;;;;;;;;;2.00;2.00;;;;;25.20;55.48;101352.94;5077404;27;45366;-82
2022/08/23 08:18:36;;;;;;;;;3.00;2.00;;;;;25.22;55.62;101354.53;5077535;27;45363;-81
2022/08/23 08:21:02;;;;;;;;;3.00;2.00;;;;;25.32;55.33;101359.13;5077818;27;58269;-81
2022/08/23 08:23:28;;;;;;;;;2.00;2.00;;;;;25.40;55.42;101357.50;5077156;27;46671;-81
2022/08/23 08:26:05;;;;;;;;;2.00;2.00;;;;;25.49;55.74;101367.41;5078570;27;45478;-81
2022/08/23 08:28:31;;;;;;;;;3.25;1.25;;;;;25.56;55.45;101369.59;5078692;27;45322;-81
2022/08/23 08:30:57;;;;;;;;;3.00;2.00;;;;;25.61;55.48;101364.72;5078620;27;45359;-81
2022/08/23 08:33:24;;;;;;;;;2.25;2.25;;;;;25.69;55.12;101371.09;5075616;28;45305;-82
2022/08/23 08:35:49;;;;;;;;;2.00;2.00;;;;;25.82;54.89;101372.75;5077906;27;45253;-81
2022/08/23 08:38:15;;;;;;;;;3.75;2.25;;;;;25.91;54.44;101381.78;5078054;27;55085;-81
2022/08/23 08:40:41;;;;;;;;;3.75;3.00;;;;;25.95;55.16;101384.13;5077844;28;60357;-81
2022/08/23 08:43:16;;;;;;;;;2.75;2.00;;;;;25.92;54.74;101378.16;5076080;27;73459;-81
2022/08/23 08:46:07;;;;;;;;;2.50;2.50;;;;;25.87;54.48;101370.53;5078155;27;45317;-81
2022/08/23 08:48:40;;;;;;;;;4.00;2.50;;;;;25.84;54.96;101381.47;5077856;27;45394;-81
2022/08/23 08:51:32;;;;;;;;;3.00;3.00;;;;;25.92;54.74;101378.16;5076952;27;45454;-81
2022/08/23 08:53:58;;;;;;;;;4.75;3.00;;;;;26.05;54.74;101377.00;5077629;28;45571;-81
2022/08/23 08:56:27;;;;;;;;;2.50;2.00;;;;;26.15;54.29;101374.44;5076389;28;54371;-81
2022/08/23 08:58:57;;;;;;;;;2.75;2.50;;;;;26.22;54.20;101369.41;5078298;27;45380;-81
2022/08/23 09:01:25;;;;;;;;;2.00;2.00;;;;;26.36;53.79;101376.25;5076903;27;45493;-81
2022/08/23 09:03:51;;;;;;;;;3.50;2.00;;;;;26.40;54.02;101377.66;5077673;27;46199;-81
2022/08/23 09:06:31;;;;;;;;;2.00;2.00;;;;;26.50;54.07;101377.72;5078005;27;45369;-82
2022/08/23 09:09:06;;;;;;;;;3.00;3.00;;;;;26.62;54.19;101382.88;5078122;27;45309;-82
2022/08/23 09:11:44;;;;;;;;;4.25;3.25;;;;;26.68;53.37;101388.66;5078133;27;45467;-82
2022/08/23 09:14:12;;;;;;;;;1.75;1.75;;;;;26.70;53.13;101392.03;5077762;27;46257;-82
2022/08/23 09:16:37;;;;;;;;;3.75;3.00;;;;;26.77;52.75;101387.84;5077765;27;45373;-81
2022/08/23 09:19:03;;;;;;;;;3.33;3.00;;;;;26.84;52.67;101389.84;5077542;28;45452;-82
2022/08/23 09:21:48;;;;;;;;;3.00;3.00;;;;;27.00;52.59;101394.66;5077856;27;45372;-82
2022/08/23 09:24:14;;;;;;;;;4.00;2.00;;;;;27.15;51.91;101380.94;5076620;27;45498;-82
2022/08/23 09:26:39;;;;;;;;;2.00;2.00;;;;;27.23;51.67;101387.28;5076383;28;45358;-82
2022/08/23 09:29:26;;;;;;;;;3.25;3.25;;;;;27.31;51.07;101391.13;5077826;28;45398;-82
2022/08/23 09:32:02;;;;;;;;;4.25;3.00;;;;;27.30;50.84;101392.94;5077450;27;45471;-82
2022/08/23 09:34:31;;;;;;;;;3.00;3.00;;;;;27.34;51.24;101390.84;5075649;27;46393;-82
2022/08/23 09:37:19;;;;;;;;;4.00;3.00;;;;;27.39;50.90;101384.09;5077212;27;45412;-82
2022/08/23 09:40:10;;;;;;;;;3.50;2.00;;;;;27.42;51.00;101381.16;5076283;27;45326;-82
2022/08/23 09:42:38;;;;;;;;;5.25;3.75;;;;;27.41;50.58;101381.28;5054525;28;45381;-82
2022/08/23 09:45:05;;;;;;;;;4.00;4.00;;;;;27.36;50.11;101383.56;5037266;28;45444;-81
2022/08/23 09:47:35;;;;;;;;;3.00;3.00;;;;;27.36;50.92;101386.22;5037348;28;45384;-82
2022/08/23 09:50:16;;;;;;;;;2.75;2.75;;;;;27.50;50.46;101382.28;5054904;28;45310;-82
2022/08/23 09:52:42;;;;;;;;;3.00;3.00;;;;;27.63;50.90;101380.19;5054421;28;45635;-81
2022/08/23 09:55:11;;;;;;;;;5.50;3.00;;;;;27.76;49.93;101385.25;5037482;28;45495;-82
2022/08/23 09:57:37;;;;;;;;;3.25;2.50;;;;;27.98;50.44;101384.16;5054445;28;45765;-82
2022/08/23 10:00:22;;;;;;;;;3.75;3.00;;;;;28.17;49.52;101378.75;5054628;28;45502;-82
2022/08/23 10:02:47;;;;;;;;;3.00;3.00;;;;;28.22;49.00;101378.34;5054208;28;45491;-81
2022/08/23 10:05:37;;;;;;;;;3.00;3.00;;;;;28.16;48.78;101379.75;5054513;28;45443;-82
2022/08/23 10:08:03;;;;;;;;;4.75;4.00;;;;;27.95;48.87;101379.06;5054485;28;45358;-82
2022/08/23 10:10:47;;;;;;;;;3.00;3.00;;;;;27.74;49.41;101379.22;5054405;28;45455;-81
2022/08/23 10:13:13;;;;;;;;;3.00;3.00;;;;;27.63;50.02;101366.81;5037386;28;45398;-81
2022/08/23 10:16:00;;;;;;;;;1.75;1.75;;;;;27.65;49.80;101370.19;5053996;28;45619;-82
2022/08/23 10:18:41;;;;;;;;;2.25;1.25;;;;;27.60;49.80;101369.78;5054229;28;45730;-81
2022/08/23 10:21:18;;;;;;;;;1.25;1.25;;;;;27.52;50.29;101362.44;5075315;27;45357;-82
2022/08/23 10:23:52;;;;;;;;;1.00;1.00;;;;;27.51;50.09;101367.94;5075559;27;45437;-81
2022/08/23 10:26:25;;;;;;;;;2.00;2.00;;;;;27.51;50.28;101371.47;5076537;27;46444;-82
2022/08/23 10:32:11;;;;;;;;;2.00;2.00;;;;;27.47;49.98;101355.81;5026876;28;45501;-82
2022/08/23 10:34:38;;;;;;;;;1.00;1.00;;;;;27.45;50.10;101356.00;5015166;28;45332;-82
2022/08/23 10:37:28;;;;;;;;;1.25;1.25;;;;;27.45;49.97;101347.09;5033611;28;47187;-82
2022/08/23 10:40:29;;;;;;;;;1.00;1.00;;;;;27.51;50.41;101339.38;5033918;28;45701;-81
2022/08/23 10:43:14;;;;;;;;;2.00;2.00;;;;;27.61;50.74;101340.22;4977622;28;45668;-82
2022/08/23 10:45:42;;;;;;;;;1.75;1.75;;;;;27.70;50.09;101337.69;5010215;28;45515;-82
2022/08/23 10:48:28;;;;;;;;;2.00;2.00;;;;;27.78;50.30;101341.31;4994052;28;45765;-81
2022/08/23 10:51:01;;;;;;;;;2.00;2.00;;;;;27.86;48.71;101337.09;4993887;28;45328;-82
2022/08/23 10:53:45;;;;;;;;;3.75;2.00;;;;;27.95;48.78;101345.16;5010266;28;45387;-82
2022/08/23 10:56:16;;;;;;;;;0.25;0.25;;;;;28.12;49.11;101342.72;4992788;28;45550;-81
2022/08/23 10:59:01;;;;;;;;;1.50;1.50;;;;;28.18;47.86;101347.50;5009665;28;47069;-82
2022/08/23 11:01:52;;;;;;;;;1.75;1.00;;;;;28.29;48.30;101341.97;4993593;28;45427;-82
2022/08/23 11:04:35;;;;;;;;;1.00;1.00;;;;;28.41;46.93;101341.78;4997006;28;45352;-82
2022/08/23 11:07:14;;;;;;;;;1.00;1.00;;;;;28.57;46.59;101342.88;5013432;28;45587;-82
2022/08/23 11:09:49;;;;;;;;;1.00;1.00;;;;;28.69;46.38;101340.00;4996800;28;45415;-82
2022/08/23 11:12:20;;;;;;;;;1.00;1.00;;;;;28.80;46.38;101341.66;5013296;28;45682;-82
2022/08/23 11:15:06;;;;;;;;;0.00;0.00;;;;;28.85;47.29;101334.03;5013327;28;45377;-82
2022/08/23 11:17:50;;;;;;;;;1.50;1.50;;;;;28.87;46.32;101332.88;5015468;28;45594;-82
2022/08/23 11:20:49;;;;;;;;;0.25;0.25;;;;;29.02;46.16;101327.84;5033020;28;45517;-82
2022/08/23 11:23:30;;;;;;;;;2.25;1.00;;;;;29.13;45.11;101329.47;5032945;28;45370;-82
2022/08/23 11:25:55;;;;;;;;;0.00;0.00;;;;;29.12;44.88;101331.31;5033238;28;45466;-82
2022/08/23 11:28:20;;;;;;;;;0.00;0.00;;;;;29.14;46.04;101326.69;5016372;28;45450;-82
2022/08/23 11:30:56;;;;;;;;;0.33;0.33;;;;;29.32;44.70;101329.34;5032711;28;48505;-82
2022/08/23 11:33:40;;;;;;;;;0.00;0.00;;;;;29.56;44.32;101333.25;5032774;28;45444;-82
2022/08/23 11:36:08;;;;;;;;;0.00;0.00;;;;;29.75;45.25;101326.91;5026634;28;45509;-82
2022/08/23 11:38:46;;;;;;;;;4.00;1.00;;;;;30.18;44.15;101321.66;5033261;28;45489;-82
2022/08/23 11:41:40;;;;;;;;;0.00;0.00;;;;;31.00;43.13;101332.81;5032841;28;45358;-82
2022/08/23 11:44:12;;;;;;;;;0.50;0.50;;;;;34.33;40.88;101336.38;5018985;28;45721;-82
2022/08/23 11:47:07;;;;;;;;;0.00;0.00;;;;;38.22;34.40;101333.94;5033106;28;45472;-82